sensor_id;sensor_type;location;lat;lon;timestamp;temperature;humidity
30694;DHT22;17446;48.022;-1.740;2024-02-16T00:01:17;14.60;99.90
30694;DHT22;17446;48.022;-1.740;2024-02-16T00:03:43;14.70;99.90
30694;DHT22;17446;48.022;-1.740;2024-02-16T00:06:09;14.70;99.90
30694;DHT22;17446;48.022;-1.740;2024-02-16T00:08:35;14.70;99.90
30694;DHT22;17446;48.022;-1.740;2024-02-16T00:11:04;14.80;99.90
30694;DHT22;17446;48.022;-1.740;2024-02-16T00:13:30;14.80;99.90
30694;DHT22;17446;48.022;-1.740;2024-02-16T00:15:55;14.80;99.90
30694;DHT22;17446;48.022;-1.740;2024-02-16T00:18:21;14.80;99.90
30694;DHT22;17446;48.022;-1.740;2024-02-16T00:20:46;14.80;99.90
30694;DHT22;17446;48.022;-1.740;2024-02-16T00:23:12;14.90;99.90
30694;DHT22;17446;48.022;-1.740;2024-02-16T00:25:37;14.90;99.90
30694;DHT22;17446;48.022;-1.740;2024-02-16T00:28:05;14.90;99.90
30694;DHT22;17446;48.022;-1.740;2024-02-16T00:30:30;14.90;99.90
30694;DHT22;17446;48.022;-1.740;2024-02-16T00:32:56;14.90;99.90
30694;DHT22;17446;48.022;-1.740;2024-02-16T00:35:22;14.90;99.90
30694;DHT22;17446;48.022;-1.740;2024-02-16T00:37:47;15.00;99.90
30694;DHT22;17446;48.022;-1.740;2024-02-16T00:40:13;15.00;99.90
30694;DHT22;17446;48.022;-1.740;2024-02-16T00:42:39;14.90;99.90
30694;DHT22;17446;48.022;-1.740;2024-02-16T00:45:08;15.00;99.90
30694;DHT22;17446;48.022;-1.740;2024-02-16T00:47:34;15.00;99.90
30694;DHT22;17446;48.022;-1.740;2024-02-16T00:49:59;15.00;99.90
30694;DHT22;17446;48.022;-1.740;2024-02-16T00:52:25;15.00;99.90
30694;DHT22;17446;48.022;-1.740;2024-02-16T00:54:51;15.10;99.90
30694;DHT22;17446;48.022;-1.740;2024-02-16T00:57:16;15.10;99.90
30694;DHT22;17446;48.022;-1.740;2024-02-16T00:59:42;15.10;99.90
30694;DHT22;17446;48.022;-1.740;2024-02-16T01:02:07;15.10;99.90
30694;DHT22;17446;48.022;-1.740;2024-02-16T01:04:34;15.10;99.90
30694;DHT22;17446;48.022;-1.740;2024-02-16T01:07:00;15.10;99.90
30694;DHT22;17446;48.022;-1.740;2024-02-16T01:09:26;15.10;99.90
30694;DHT22;17446;48.022;-1.740;2024-02-16T01:11:52;15.10;99.90
30694;DHT22;17446;48.022;-1.740;2024-02-16T01:14:18;15.20;99.90
30694;DHT22;17446;48.022;-1.740;2024-02-16T01:16:43;15.20;99.90
30694;DHT22;17446;48.022;-1.740;2024-02-16T01:19:09;15.10;99.90
30694;DHT22;17446;48.022;-1.740;2024-02-16T01:21:35;15.10;99.90
30694;DHT22;17446;48.022;-1.740;2024-02-16T01:24:01;15.10;99.90
30694;DHT22;17446;48.022;-1.740;2024-02-16T01:26:27;15.10;99.90
30694;DHT22;17446;48.022;-1.740;2024-02-16T01:28:53;15.10;99.90
30694;DHT22;17446;48.022;-1.740;2024-02-16T01:31:19;15.10;99.90
30694;DHT22;17446;48.022;-1.740;2024-02-16T01:33:44;15.10;99.90
30694;DHT22;17446;48.022;-1.740;2024-02-16T01:36:10;15.10;99.90
30694;DHT22;17446;48.022;-1.740;2024-02-16T01:38:36;15.10;99.90
30694;DHT22;17446;48.022;-1.740;2024-02-16T01:41:01;15.10;99.90
30694;DHT22;17446;48.022;-1.740;2024-02-16T01:43:27;15.10;99.90
30694;DHT22;17446;48.022;-1.740;2024-02-16T01:45:53;15.10;99.90
30694;DHT22;17446;48.022;-1.740;2024-02-16T01:48:19;15.10;99.90
30694;DHT22;17446;48.022;-1.740;2024-02-16T01:50:45;15.10;99.90
30694;DHT22;17446;48.022;-1.740;2024-02-16T01:53:15;15.10;99.90
30694;DHT22;17446;48.022;-1.740;2024-02-16T01:55:44;15.10;99.90
30694;DHT22;17446;48.022;-1.740;2024-02-16T01:58:10;15.20;99.90
30694;DHT22;17446;48.022;-1.740;2024-02-16T02:00:36;15.10;99.90
30694;DHT22;17446;48.022;-1.740;2024-02-16T02:03:02;15.10;99.90
30694;DHT22;17446;48.022;-1.740;2024-02-16T02:05:28;15.10;99.90
30694;DHT22;17446;48.022;-1.740;2024-02-16T02:07:54;15.10;99.90
30694;DHT22;17446;48.022;-1.740;2024-02-16T02:10:20;15.10;99.90
30694;DHT22;17446;48.022;-1.740;2024-02-16T02:12:45;15.10;99.90
30694;DHT22;17446;48.022;-1.740;2024-02-16T02:15:11;15.10;99.90
30694;DHT22;17446;48.022;-1.740;2024-02-16T02:17:37;15.10;99.90
30694;DHT22;17446;48.022;-1.740;2024-02-16T02:20:05;15.10;99.90
30694;DHT22;17446;48.022;-1.740;2024-02-16T02:22:33;15.10;99.90
30694;DHT22;17446;48.022;-1.740;2024-02-16T02:24:59;15.00;99.90
30694;DHT22;17446;48.022;-1.740;2024-02-16T02:27:25;15.00;99.90
30694;DHT22;17446;48.022;-1.740;2024-02-16T02:29:50;15.00;99.90
30694;DHT22;17446;48.022;-1.740;2024-02-16T02:32:16;15.00;99.90
30694;DHT22;17446;48.022;-1.740;2024-02-16T02:34:42;15.00;99.90
30694;DHT22;17446;48.022;-1.740;2024-02-16T02:37:08;15.00;99.90
30694;DHT22;17446;48.022;-1.740;2024-02-16T02:39:34;14.90;99.90
30694;DHT22;17446;48.022;-1.740;2024-02-16T02:42:00;14.90;99.90
30694;DHT22;17446;48.022;-1.740;2024-02-16T02:44:26;14.90;99.90
30694;DHT22;17446;48.022;-1.740;2024-02-16T02:46:51;14.80;99.90
30694;DHT22;17446;48.022;-1.740;2024-02-16T02:49:18;14.80;99.90
30694;DHT22;17446;48.022;-1.740;2024-02-16T02:51:44;14.80;99.90
30694;DHT22;17446;48.022;-1.740;2024-02-16T02:54:09;14.70;99.90
30694;DHT22;17446;48.022;-1.740;2024-02-16T02:56:35;14.60;99.90
30694;DHT22;17446;48.022;-1.740;2024-02-16T02:59:01;14.60;99.90
30694;DHT22;17446;48.022;-1.740;2024-02-16T03:01:26;14.50;99.90
30694;DHT22;17446;48.022;-1.740;2024-02-16T03:03:52;14.40;99.90
30694;DHT22;17446;48.022;-1.740;2024-02-16T03:06:21;14.30;99.90
30694;DHT22;17446;48.022;-1.740;2024-02-16T03:08:46;14.20;99.90
30694;DHT22;17446;48.022;-1.740;2024-02-16T03:11:12;14.20;99.90
30694;DHT22;17446;48.022;-1.740;2024-02-16T03:13:38;14.10;99.90
30694;DHT22;17446;48.022;-1.740;2024-02-16T03:16:04;14.10;99.90
30694;DHT22;17446;48.022;-1.740;2024-02-16T03:18:30;14.10;99.90
30694;DHT22;17446;48.022;-1.740;2024-02-16T03:20:56;14.00;99.90
30694;DHT22;17446;48.022;-1.740;2024-02-16T03:23:22;14.00;99.90
30694;DHT22;17446;48.022;-1.740;2024-02-16T03:25:48;14.00;99.90
30694;DHT22;17446;48.022;-1.740;2024-02-16T03:28:14;14.00;99.90
30694;DHT22;17446;48.022;-1.740;2024-02-16T03:30:41;13.90;99.90
30694;DHT22;17446;48.022;-1.740;2024-02-16T03:33:07;13.90;99.90
30694;DHT22;17446;48.022;-1.740;2024-02-16T03:35:33;13.90;99.90
30694;DHT22;17446;48.022;-1.740;2024-02-16T03:37:59;13.90;99.90
30694;DHT22;17446;48.022;-1.740;2024-02-16T03:40:24;13.90;99.90
30694;DHT22;17446;48.022;-1.740;2024-02-16T03:42:51;13.90;99.90
30694;DHT22;17446;48.022;-1.740;2024-02-16T03:45:17;13.90;99.90
30694;DHT22;17446;48.022;-1.740;2024-02-16T03:47:43;13.90;99.90
30694;DHT22;17446;48.022;-1.740;2024-02-16T03:50:09;13.80;99.90
30694;DHT22;17446;48.022;-1.740;2024-02-16T03:52:35;13.70;99.90
30694;DHT22;17446;48.022;-1.740;2024-02-16T03:55:01;13.70;99.90
30694;DHT22;17446;48.022;-1.740;2024-02-16T03:57:26;13.80;99.90
30694;DHT22;17446;48.022;-1.740;2024-02-16T03:59:52;13.80;99.90
30694;DHT22;17446;48.022;-1.740;2024-02-16T04:02:18;13.80;99.90
30694;DHT22;17446;48.022;-1.740;2024-02-16T04:04:44;13.80;99.90
30694;DHT22;17446;48.022;-1.740;2024-02-16T04:07:10;13.80;99.90
30694;DHT22;17446;48.022;-1.740;2024-02-16T04:09:36;13.80;99.90
30694;DHT22;17446;48.022;-1.740;2024-02-16T04:12:02;13.70;99.90
30694;DHT22;17446;48.022;-1.740;2024-02-16T04:14:29;13.70;99.90
30694;DHT22;17446;48.022;-1.740;2024-02-16T04:16:54;13.70;99.90
30694;DHT22;17446;48.022;-1.740;2024-02-16T04:19:24;13.60;99.90
30694;DHT22;17446;48.022;-1.740;2024-02-16T04:21:49;13.60;99.90
30694;DHT22;17446;48.022;-1.740;2024-02-16T04:24:15;13.60;99.90
30694;DHT22;17446;48.022;-1.740;2024-02-16T04:26:40;13.60;99.90
30694;DHT22;17446;48.022;-1.740;2024-02-16T04:29:06;13.50;99.90
30694;DHT22;17446;48.022;-1.740;2024-02-16T04:31:32;13.50;99.90
30694;DHT22;17446;48.022;-1.740;2024-02-16T04:33:57;13.60;99.90
30694;DHT22;17446;48.022;-1.740;2024-02-16T04:36:23;13.50;99.90
30694;DHT22;17446;48.022;-1.740;2024-02-16T04:38:48;13.50;99.90
30694;DHT22;17446;48.022;-1.740;2024-02-16T04:41:14;13.50;99.90
30694;DHT22;17446;48.022;-1.740;2024-02-16T04:43:41;13.50;99.90
30694;DHT22;17446;48.022;-1.740;2024-02-16T04:46:06;13.50;99.90
30694;DHT22;17446;48.022;-1.740;2024-02-16T04:48:32;13.50;99.90
30694;DHT22;17446;48.022;-1.740;2024-02-16T04:50:59;13.50;99.90
30694;DHT22;17446;48.022;-1.740;2024-02-16T04:53:25;13.50;99.90
30694;DHT22;17446;48.022;-1.740;2024-02-16T04:55:50;13.50;99.90
30694;DHT22;17446;48.022;-1.740;2024-02-16T04:58:16;13.50;99.90
30694;DHT22;17446;48.022;-1.740;2024-02-16T05:00:42;13.60;99.90
30694;DHT22;17446;48.022;-1.740;2024-02-16T05:03:08;13.60;99.90
30694;DHT22;17446;48.022;-1.740;2024-02-16T05:05:33;13.60;99.90
30694;DHT22;17446;48.022;-1.740;2024-02-16T05:08:00;13.60;99.90
30694;DHT22;17446;48.022;-1.740;2024-02-16T05:10:26;13.60;99.90
30694;DHT22;17446;48.022;-1.740;2024-02-16T05:12:51;13.60;99.90
30694;DHT22;17446;48.022;-1.740;2024-02-16T05:15:17;13.60;99.90
30694;DHT22;17446;48.022;-1.740;2024-02-16T05:17:46;13.60;99.90
30694;DHT22;17446;48.022;-1.740;2024-02-16T05:20:13;13.60;99.90
30694;DHT22;17446;48.022;-1.740;2024-02-16T05:22:45;13.60;99.90
30694;DHT22;17446;48.022;-1.740;2024-02-16T05:25:15;13.60;99.90
30694;DHT22;17446;48.022;-1.740;2024-02-16T05:27:41;13.60;99.90
30694;DHT22;17446;48.022;-1.740;2024-02-16T05:30:09;13.50;99.90
30694;DHT22;17446;48.022;-1.740;2024-02-16T05:32:35;13.50;99.90
30694;DHT22;17446;48.022;-1.740;2024-02-16T05:35:03;13.40;99.90
30694;DHT22;17446;48.022;-1.740;2024-02-16T05:37:40;13.30;99.90
30694;DHT22;17446;48.022;-1.740;2024-02-16T05:40:08;13.30;99.90
30694;DHT22;17446;48.022;-1.740;2024-02-16T05:42:47;13.30;99.90
30694;DHT22;17446;48.022;-1.740;2024-02-16T05:45:14;13.30;99.90
30694;DHT22;17446;48.022;-1.740;2024-02-16T05:47:40;13.30;99.90
30694;DHT22;17446;48.022;-1.740;2024-02-16T05:50:06;13.30;99.90
30694;DHT22;17446;48.022;-1.740;2024-02-16T05:52:32;13.30;99.90
30694;DHT22;17446;48.022;-1.740;2024-02-16T05:54:58;13.40;99.90
30694;DHT22;17446;48.022;-1.740;2024-02-16T05:57:23;13.30;99.90
30694;DHT22;17446;48.022;-1.740;2024-02-16T05:59:49;13.30;99.90
30694;DHT22;17446;48.022;-1.740;2024-02-16T06:02:15;13.30;99.90
30694;DHT22;17446;48.022;-1.740;2024-02-16T06:04:41;13.30;99.90
30694;DHT22;17446;48.022;-1.740;2024-02-16T06:07:07;13.30;99.90
30694;DHT22;17446;48.022;-1.740;2024-02-16T06:09:33;13.30;99.90
30694;DHT22;17446;48.022;-1.740;2024-02-16T06:12:03;13.30;99.90
30694;DHT22;17446;48.022;-1.740;2024-02-16T06:14:33;13.30;99.90
30694;DHT22;17446;48.022;-1.740;2024-02-16T06:16:58;13.30;99.90
30694;DHT22;17446;48.022;-1.740;2024-02-16T06:19:25;13.30;99.90
30694;DHT22;17446;48.022;-1.740;2024-02-16T06:21:50;13.30;99.90
30694;DHT22;17446;48.022;-1.740;2024-02-16T06:24:16;13.30;99.90
30694;DHT22;17446;48.022;-1.740;2024-02-16T06:26:42;13.30;99.90
30694;DHT22;17446;48.022;-1.740;2024-02-16T06:29:14;13.30;99.90
30694;DHT22;17446;48.022;-1.740;2024-02-16T06:31:39;13.30;99.90
30694;DHT22;17446;48.022;-1.740;2024-02-16T06:34:05;13.30;99.90
30694;DHT22;17446;48.022;-1.740;2024-02-16T06:36:31;13.30;99.90
30694;DHT22;17446;48.022;-1.740;2024-02-16T06:38:56;13.30;99.90
30694;DHT22;17446;48.022;-1.740;2024-02-16T06:41:22;13.30;99.90
30694;DHT22;17446;48.022;-1.740;2024-02-16T06:43:47;13.30;99.90
30694;DHT22;17446;48.022;-1.740;2024-02-16T06:46:13;13.30;99.90
30694;DHT22;17446;48.022;-1.740;2024-02-16T06:48:38;13.30;99.90
30694;DHT22;17446;48.022;-1.740;2024-02-16T06:51:04;13.30;99.90
30694;DHT22;17446;48.022;-1.740;2024-02-16T06:53:30;13.20;99.90
30694;DHT22;17446;48.022;-1.740;2024-02-16T06:55:55;13.20;99.90
30694;DHT22;17446;48.022;-1.740;2024-02-16T06:58:21;13.10;99.90
30694;DHT22;17446;48.022;-1.740;2024-02-16T07:00:46;13.10;99.90
30694;DHT22;17446;48.022;-1.740;2024-02-16T07:03:12;13.00;99.90
30694;DHT22;17446;48.022;-1.740;2024-02-16T07:05:38;13.00;99.90
30694;DHT22;17446;48.022;-1.740;2024-02-16T07:08:05;12.90;99.90
30694;DHT22;17446;48.022;-1.740;2024-02-16T07:10:33;12.90;99.90
30694;DHT22;17446;48.022;-1.740;2024-02-16T07:12:58;12.90;99.90
30694;DHT22;17446;48.022;-1.740;2024-02-16T07:15:24;12.90;99.90
30694;DHT22;17446;48.022;-1.740;2024-02-16T07:17:51;12.80;99.90
30694;DHT22;17446;48.022;-1.740;2024-02-16T07:20:17;12.80;99.90
30694;DHT22;17446;48.022;-1.740;2024-02-16T07:22:43;12.80;99.90
30694;DHT22;17446;48.022;-1.740;2024-02-16T07:25:11;12.70;99.90
30694;DHT22;17446;48.022;-1.740;2024-02-16T07:27:38;12.70;99.90
30694;DHT22;17446;48.022;-1.740;2024-02-16T07:30:04;12.70;99.90
30694;DHT22;17446;48.022;-1.740;2024-02-16T07:32:30;12.60;99.90
30694;DHT22;17446;48.022;-1.740;2024-02-16T07:34:55;12.60;99.90
30694;DHT22;17446;48.022;-1.740;2024-02-16T07:37:21;12.60;99.90
30694;DHT22;17446;48.022;-1.740;2024-02-16T07:39:46;12.50;99.90
30694;DHT22;17446;48.022;-1.740;2024-02-16T07:42:12;12.50;99.90
30694;DHT22;17446;48.022;-1.740;2024-02-16T07:44:39;12.50;99.90
30694;DHT22;17446;48.022;-1.740;2024-02-16T07:47:05;12.50;99.90
30694;DHT22;17446;48.022;-1.740;2024-02-16T07:49:31;12.50;99.90
30694;DHT22;17446;48.022;-1.740;2024-02-16T07:51:56;12.40;99.90
30694;DHT22;17446;48.022;-1.740;2024-02-16T07:54:23;12.40;99.90
30694;DHT22;17446;48.022;-1.740;2024-02-16T07:56:48;12.40;99.90
30694;DHT22;17446;48.022;-1.740;2024-02-16T07:59:14;12.40;99.90
30694;DHT22;17446;48.022;-1.740;2024-02-16T08:01:40;12.40;99.90
30694;DHT22;17446;48.022;-1.740;2024-02-16T08:04:06;12.40;99.90
30694;DHT22;17446;48.022;-1.740;2024-02-16T08:06:31;12.40;99.90
30694;DHT22;17446;48.022;-1.740;2024-02-16T08:08:57;12.40;99.90
30694;DHT22;17446;48.022;-1.740;2024-02-16T08:11:23;12.40;99.90
30694;DHT22;17446;48.022;-1.740;2024-02-16T08:13:49;12.40;99.90
30694;DHT22;17446;48.022;-1.740;2024-02-16T08:16:14;12.50;99.90
30694;DHT22;17446;48.022;-1.740;2024-02-16T08:18:40;12.50;99.90
30694;DHT22;17446;48.022;-1.740;2024-02-16T08:21:05;12.50;99.90
30694;DHT22;17446;48.022;-1.740;2024-02-16T08:23:31;12.50;99.90
30694;DHT22;17446;48.022;-1.740;2024-02-16T08:25:57;12.50;99.90
30694;DHT22;17446;48.022;-1.740;2024-02-16T08:28:23;12.50;99.90
30694;DHT22;17446;48.022;-1.740;2024-02-16T08:30:50;12.50;99.90
30694;DHT22;17446;48.022;-1.740;2024-02-16T08:33:15;12.50;99.90
30694;DHT22;17446;48.022;-1.740;2024-02-16T08:35:41;12.50;99.90
30694;DHT22;17446;48.022;-1.740;2024-02-16T08:38:06;12.50;99.90
30694;DHT22;17446;48.022;-1.740;2024-02-16T08:40:37;12.50;99.90
30694;DHT22;17446;48.022;-1.740;2024-02-16T08:43:04;12.50;99.90
30694;DHT22;17446;48.022;-1.740;2024-02-16T08:45:30;12.50;99.90
30694;DHT22;17446;48.022;-1.740;2024-02-16T08:47:56;12.50;99.90
30694;DHT22;17446;48.022;-1.740;2024-02-16T08:50:23;12.60;99.90
30694;DHT22;17446;48.022;-1.740;2024-02-16T08:52:49;12.50;99.90
30694;DHT22;17446;48.022;-1.740;2024-02-16T08:55:15;12.60;99.90
30694;DHT22;17446;48.022;-1.740;2024-02-16T08:57:41;12.60;99.90
30694;DHT22;17446;48.022;-1.740;2024-02-16T09:00:08;12.60;99.90
30694;DHT22;17446;48.022;-1.740;2024-02-16T09:02:34;12.60;99.90
30694;DHT22;17446;48.022;-1.740;2024-02-16T09:05:00;12.60;99.90
30694;DHT22;17446;48.022;-1.740;2024-02-16T09:07:25;12.60;99.90
30694;DHT22;17446;48.022;-1.740;2024-02-16T09:09:51;12.60;99.90
30694;DHT22;17446;48.022;-1.740;2024-02-16T09:12:17;12.70;99.90
30694;DHT22;17446;48.022;-1.740;2024-02-16T09:14:42;12.70;99.90
30694;DHT22;17446;48.022;-1.740;2024-02-16T09:17:08;12.70;99.90
30694;DHT22;17446;48.022;-1.740;2024-02-16T09:19:34;12.70;99.90
30694;DHT22;17446;48.022;-1.740;2024-02-16T09:21:59;12.70;99.90
30694;DHT22;17446;48.022;-1.740;2024-02-16T09:24:28;12.80;99.90
30694;DHT22;17446;48.022;-1.740;2024-02-16T09:26:55;12.80;99.90
30694;DHT22;17446;48.022;-1.740;2024-02-16T09:29:21;12.80;99.90
30694;DHT22;17446;48.022;-1.740;2024-02-16T09:31:49;12.80;99.90
30694;DHT22;17446;48.022;-1.740;2024-02-16T09:34:16;12.80;99.90
30694;DHT22;17446;48.022;-1.740;2024-02-16T09:36:43;12.80;99.90
30694;DHT22;17446;48.022;-1.740;2024-02-16T09:39:08;12.80;99.90
30694;DHT22;17446;48.022;-1.740;2024-02-16T09:41:35;12.90;99.90
30694;DHT22;17446;48.022;-1.740;2024-02-16T09:44:04;12.90;99.90
30694;DHT22;17446;48.022;-1.740;2024-02-16T09:46:30;13.00;99.90
30694;DHT22;17446;48.022;-1.740;2024-02-16T09:49:01;13.00;99.90
30694;DHT22;17446;48.022;-1.740;2024-02-16T09:51:28;13.00;99.90
30694;DHT22;17446;48.022;-1.740;2024-02-16T09:53:53;13.00;99.90
30694;DHT22;17446;48.022;-1.740;2024-02-16T09:56:22;13.10;99.90
30694;DHT22;17446;48.022;-1.740;2024-02-16T09:58:50;13.10;99.90
30694;DHT22;17446;48.022;-1.740;2024-02-16T10:01:18;13.20;99.90
30694;DHT22;17446;48.022;-1.740;2024-02-16T10:03:45;13.30;99.90
30694;DHT22;17446;48.022;-1.740;2024-02-16T10:06:11;13.30;99.90
30694;DHT22;17446;48.022;-1.740;2024-02-16T10:08:54;13.30;99.90
30694;DHT22;17446;48.022;-1.740;2024-02-16T10:11:21;13.40;99.90
30694;DHT22;17446;48.022;-1.740;2024-02-16T10:14:04;13.40;99.90
30694;DHT22;17446;48.022;-1.740;2024-02-16T10:16:30;13.40;99.90
30694;DHT22;17446;48.022;-1.740;2024-02-16T10:19:06;13.50;99.90
30694;DHT22;17446;48.022;-1.740;2024-02-16T10:21:32;13.50;99.90
30694;DHT22;17446;48.022;-1.740;2024-02-16T10:24:05;13.60;99.90
30694;DHT22;17446;48.022;-1.740;2024-02-16T10:26:34;13.70;99.90
30694;DHT22;17446;48.022;-1.740;2024-02-16T10:29:08;13.80;99.90
30694;DHT22;17446;48.022;-1.740;2024-02-16T10:31:34;13.90;99.90
30694;DHT22;17446;48.022;-1.740;2024-02-16T10:34:01;14.10;99.90
30694;DHT22;17446;48.022;-1.740;2024-02-16T10:36:32;14.20;99.90
30694;DHT22;17446;48.022;-1.740;2024-02-16T10:38:58;14.50;99.90
30694;DHT22;17446;48.022;-1.740;2024-02-16T10:41:26;14.60;99.90
30694;DHT22;17446;48.022;-1.740;2024-02-16T10:43:55;14.80;99.90
30694;DHT22;17446;48.022;-1.740;2024-02-16T10:46:22;14.90;99.90
30694;DHT22;17446;48.022;-1.740;2024-02-16T10:48:49;15.00;99.90
30694;DHT22;17446;48.022;-1.740;2024-02-16T10:51:19;15.10;99.90
30694;DHT22;17446;48.022;-1.740;2024-02-16T10:53:46;15.10;99.90
30694;DHT22;17446;48.022;-1.740;2024-02-16T10:56:13;15.20;99.90
30694;DHT22;17446;48.022;-1.740;2024-02-16T10:58:39;15.20;99.90
30694;DHT22;17446;48.022;-1.740;2024-02-16T11:01:09;15.20;99.90
30694;DHT22;17446;48.022;-1.740;2024-02-16T11:03:38;15.10;99.90
30694;DHT22;17446;48.022;-1.740;2024-02-16T11:06:15;15.10;99.90
30694;DHT22;17446;48.022;-1.740;2024-02-16T11:08:42;15.10;99.90
30694;DHT22;17446;48.022;-1.740;2024-02-16T11:11:07;15.00;99.90
30694;DHT22;17446;48.022;-1.740;2024-02-16T11:13:35;15.00;99.90
30694;DHT22;17446;48.022;-1.740;2024-02-16T11:16:09;15.00;99.90
30694;DHT22;17446;48.022;-1.740;2024-02-16T11:18:42;15.00;99.90
30694;DHT22;17446;48.022;-1.740;2024-02-16T11:21:15;14.90;99.90
30694;DHT22;17446;48.022;-1.740;2024-02-16T11:23:41;14.80;99.90
30694;DHT22;17446;48.022;-1.740;2024-02-16T11:26:12;14.70;99.90
30694;DHT22;17446;48.022;-1.740;2024-02-16T11:28:40;14.60;99.90
30694;DHT22;17446;48.022;-1.740;2024-02-16T11:31:06;14.50;99.90
30694;DHT22;17446;48.022;-1.740;2024-02-16T11:33:33;14.60;99.90
30694;DHT22;17446;48.022;-1.740;2024-02-16T11:36:08;14.60;99.90
30694;DHT22;17446;48.022;-1.740;2024-02-16T11:38:34;14.60;99.90
30694;DHT22;17446;48.022;-1.740;2024-02-16T11:41:03;14.60;99.90
30694;DHT22;17446;48.022;-1.740;2024-02-16T11:43:30;14.70;99.90
30694;DHT22;17446;48.022;-1.740;2024-02-16T11:45:56;14.70;99.90
30694;DHT22;17446;48.022;-1.740;2024-02-16T11:48:26;14.80;99.90
30694;DHT22;17446;48.022;-1.740;2024-02-16T11:51:01;14.80;99.90
30694;DHT22;17446;48.022;-1.740;2024-02-16T11:53:28;14.90;99.90
30694;DHT22;17446;48.022;-1.740;2024-02-16T11:55:53;15.00;99.90
30694;DHT22;17446;48.022;-1.740;2024-02-16T11:58:20;15.00;99.90
30694;DHT22;17446;48.022;-1.740;2024-02-16T12:00:47;15.10;99.90
30694;DHT22;17446;48.022;-1.740;2024-02-16T12:03:21;15.00;99.90
30694;DHT22;17446;48.022;-1.740;2024-02-16T12:05:55;14.90;99.90
30694;DHT22;17446;48.022;-1.740;2024-02-16T12:08:22;14.90;99.90
30694;DHT22;17446;48.022;-1.740;2024-02-16T12:10:49;14.90;99.90
30694;DHT22;17446;48.022;-1.740;2024-02-16T12:13:19;14.80;99.90
30694;DHT22;17446;48.022;-1.740;2024-02-16T12:15:45;14.80;99.90
30694;DHT22;17446;48.022;-1.740;2024-02-16T12:18:22;14.70;99.90
30694;DHT22;17446;48.022;-1.740;2024-02-16T12:21:01;14.80;99.90
30694;DHT22;17446;48.022;-1.740;2024-02-16T12:23:27;14.80;99.90
30694;DHT22;17446;48.022;-1.740;2024-02-16T12:25:53;14.90;99.90
30694;DHT22;17446;48.022;-1.740;2024-02-16T12:28:23;15.00;99.90
30694;DHT22;17446;48.022;-1.740;2024-02-16T12:30:49;15.10;99.90
30694;DHT22;17446;48.022;-1.740;2024-02-16T12:33:15;15.20;99.90
30694;DHT22;17446;48.022;-1.740;2024-02-16T12:35:42;15.20;99.90
30694;DHT22;17446;48.022;-1.740;2024-02-16T12:38:08;15.20;99.90
30694;DHT22;17446;48.022;-1.740;2024-02-16T12:40:33;15.20;99.90
30694;DHT22;17446;48.022;-1.740;2024-02-16T12:42:59;15.10;99.90
30694;DHT22;17446;48.022;-1.740;2024-02-16T12:45:24;15.10;99.90
30694;DHT22;17446;48.022;-1.740;2024-02-16T12:47:50;15.10;99.90
30694;DHT22;17446;48.022;-1.740;2024-02-16T12:50:16;15.00;99.90
30694;DHT22;17446;48.022;-1.740;2024-02-16T12:52:45;15.00;99.90
30694;DHT22;17446;48.022;-1.740;2024-02-16T12:55:11;15.00;99.90
30694;DHT22;17446;48.022;-1.740;2024-02-16T12:57:36;15.00;99.90
30694;DHT22;17446;48.022;-1.740;2024-02-16T13:00:04;15.10;99.90
30694;DHT22;17446;48.022;-1.740;2024-02-16T13:02:29;15.10;99.90
30694;DHT22;17446;48.022;-1.740;2024-02-16T13:04:55;15.10;99.90
30694;DHT22;17446;48.022;-1.740;2024-02-16T13:07:21;15.10;99.90
30694;DHT22;17446;48.022;-1.740;2024-02-16T13:09:46;15.20;99.90
30694;DHT22;17446;48.022;-1.740;2024-02-16T13:12:12;15.20;99.90
30694;DHT22;17446;48.022;-1.740;2024-02-16T13:14:37;15.20;99.90
30694;DHT22;17446;48.022;-1.740;2024-02-16T13:17:04;15.20;99.90
30694;DHT22;17446;48.022;-1.740;2024-02-16T13:19:29;15.20;99.90
30694;DHT22;17446;48.022;-1.740;2024-02-16T13:21:55;15.20;99.90
30694;DHT22;17446;48.022;-1.740;2024-02-16T13:24:21;15.10;99.90
30694;DHT22;17446;48.022;-1.740;2024-02-16T13:26:46;15.20;99.90
30694;DHT22;17446;48.022;-1.740;2024-02-16T13:29:12;15.10;99.90
30694;DHT22;17446;48.022;-1.740;2024-02-16T13:31:37;15.10;99.90
30694;DHT22;17446;48.022;-1.740;2024-02-16T13:34:05;15.10;99.90
30694;DHT22;17446;48.022;-1.740;2024-02-16T13:36:30;15.00;99.90
30694;DHT22;17446;48.022;-1.740;2024-02-16T13:38:56;15.10;99.90
30694;DHT22;17446;48.022;-1.740;2024-02-16T13:41:22;15.10;99.90
30694;DHT22;17446;48.022;-1.740;2024-02-16T13:43:48;15.10;99.90
30694;DHT22;17446;48.022;-1.740;2024-02-16T13:46:13;15.10;99.90
30694;DHT22;17446;48.022;-1.740;2024-02-16T13:48:40;15.10;99.90
30694;DHT22;17446;48.022;-1.740;2024-02-16T13:51:06;15.00;99.90
30694;DHT22;17446;48.022;-1.740;2024-02-16T13:53:32;15.00;99.90
30694;DHT22;17446;48.022;-1.740;2024-02-16T13:55:58;15.00;99.90
30694;DHT22;17446;48.022;-1.740;2024-02-16T13:58:26;15.10;99.90
30694;DHT22;17446;48.022;-1.740;2024-02-16T14:00:52;15.20;99.90
30694;DHT22;17446;48.022;-1.740;2024-02-16T14:03:18;15.30;99.90
30694;DHT22;17446;48.022;-1.740;2024-02-16T14:05:45;15.40;99.90
30694;DHT22;17446;48.022;-1.740;2024-02-16T14:08:12;15.50;99.90
30694;DHT22;17446;48.022;-1.740;2024-02-16T14:10:38;15.50;99.90
30694;DHT22;17446;48.022;-1.740;2024-02-16T14:13:04;15.50;99.90
30694;DHT22;17446;48.022;-1.740;2024-02-16T14:15:29;15.50;99.90
30694;DHT22;17446;48.022;-1.740;2024-02-16T14:17:55;15.50;99.90
30694;DHT22;17446;48.022;-1.740;2024-02-16T14:20:24;15.50;99.90
30694;DHT22;17446;48.022;-1.740;2024-02-16T14:22:49;15.60;99.90
30694;DHT22;17446;48.022;-1.740;2024-02-16T14:25:15;15.60;99.90
30694;DHT22;17446;48.022;-1.740;2024-02-16T14:27:41;15.60;99.90
30694;DHT22;17446;48.022;-1.740;2024-02-16T14:30:13;15.60;99.90
30694;DHT22;17446;48.022;-1.740;2024-02-16T14:32:39;15.70;99.90
30694;DHT22;17446;48.022;-1.740;2024-02-16T14:35:04;15.70;99.90
30694;DHT22;17446;48.022;-1.740;2024-02-16T14:37:33;15.80;99.90
30694;DHT22;17446;48.022;-1.740;2024-02-16T14:39:59;15.80;99.90
30694;DHT22;17446;48.022;-1.740;2024-02-16T14:42:26;15.90;99.90
30694;DHT22;17446;48.022;-1.740;2024-02-16T14:44:52;15.90;99.90
30694;DHT22;17446;48.022;-1.740;2024-02-16T14:47:18;15.80;99.90
30694;DHT22;17446;48.022;-1.740;2024-02-16T14:49:43;15.70;99.90
30694;DHT22;17446;48.022;-1.740;2024-02-16T14:52:09;15.70;99.90
30694;DHT22;17446;48.022;-1.740;2024-02-16T14:54:35;15.70;99.90
30694;DHT22;17446;48.022;-1.740;2024-02-16T14:57:01;15.70;99.90
30694;DHT22;17446;48.022;-1.740;2024-02-16T14:59:27;15.70;99.90
30694;DHT22;17446;48.022;-1.740;2024-02-16T15:01:54;15.70;99.90
30694;DHT22;17446;48.022;-1.740;2024-02-16T15:04:19;15.60;99.90
30694;DHT22;17446;48.022;-1.740;2024-02-16T15:06:45;15.60;99.90
30694;DHT22;17446;48.022;-1.740;2024-02-16T15:09:11;15.60;99.90
30694;DHT22;17446;48.022;-1.740;2024-02-16T15:11:37;15.60;99.90